Terminal Aerodrome Forecast
Issued by NWS

Current Version | Previous Version | Text Only | Print | Product List | Glossary On
Versions: 1 2 3 4 5 6 7 8 9 10 11 12 13 14 15 16 17 18 19 20 21 22 23 24 25 26 27 28 29 30 31 32 33
000
FTUS45 KBOU 232243 AAB
TAFAPA
TAF AMD
KAPA 232243Z 2323/2418 16015G23KT P6SM FEW120 BKN220
     FM240100 17011KT P6SM FEW120 BKN200
     FM240300 19008KT P6SM BKN250
     FM241000 35009KT P6SM FEW140 BKN220
     FM241400 34012KT P6SM SCT090 BKN150=

USA.gov is the U.S. government's official web portal to all federal, state and local government web resources and services.